Search for airport 
image banner adimage banner adimage banner ad
image banner ad

4CL5 - Mercy San Juan Hospital

Located in Carmichael, United States

ICAO - 4CL5, IATA -

Data provided by Airmate  

General information

Coordinates: N38°40'9" W121°18'52"
Elevation is 169 feet MSL.
Magnetic variation is 16° East
View others Airports in California

Operational data

Special qualification required
Current time UTC:
Current local time:
Weather at : KMCC - Mc Clellan Airfield ( 7 km )
METAR: KMCC 231355Z AUTO 04004KT 10SM SCT033 SCT038 15/09 A2993 RMK AO2
TAF: KMCC 231120Z 2312/2412 VRB05KT P6SM SKC
View NOTAMs / SUP AIP / TFR affecting this airport [VIEW]
Communications frequencies: [VIEW]

Runways:

Airport contact information

Address: Carmichael United States

Satellite view of 4CL5